createdAt,value
2023-03-02T00:01:08.237Z,73.70
2023-03-02T00:03:42.466Z,73.90
2023-03-02T00:06:10.693Z,75.30
2023-03-02T00:08:46.044Z,76.70
2023-03-02T00:11:15.416Z,74.20
2023-03-02T00:13:44.333Z,74.50
2023-03-02T00:16:12.277Z,78.30
2023-03-02T00:18:48.449Z,76.60
2023-03-02T00:21:16.709Z,74.60
2023-03-02T00:23:48.737Z,74.30
2023-03-02T00:26:22.510Z,78.90
2023-03-02T00:28:59.481Z,81.60
2023-03-02T00:31:27.627Z,76.70
2023-03-02T00:33:55.548Z,75.00
2023-03-02T00:36:24.638Z,81.90
2023-03-02T00:38:54.093Z,78.80
2023-03-02T00:41:28.329Z,72.90
2023-03-02T00:44:17.489Z,72.40
2023-03-02T00:46:51.304Z,74.30
2023-03-02T00:49:22.329Z,73.20
2023-03-02T00:51:53.256Z,73.20
2023-03-02T00:54:25.415Z,74.00
2023-03-02T00:56:55.709Z,74.90
2023-03-02T00:59:32.447Z,74.60
2023-03-02T01:02:09.328Z,75.00
2023-03-02T01:04:40.636Z,76.70
2023-03-02T01:07:11.582Z,78.10
2023-03-02T01:09:44.772Z,76.90
2023-03-02T01:12:15.576Z,77.10
2023-03-02T01:14:46.185Z,78.00
2023-03-02T01:17:14.739Z,78.00
2023-03-02T01:19:42.988Z,76.60
2023-03-02T01:22:10.977Z,76.50
2023-03-02T01:24:43.243Z,80.90
2023-03-02T01:27:14.515Z,83.10
2023-03-02T01:29:47.893Z,76.40
2023-03-02T01:32:17.988Z,75.40
2023-03-02T01:34:45.916Z,79.40
2023-03-02T01:37:16.606Z,80.70
2023-03-02T01:43:41.208Z,75.00
2023-03-02T01:46:15.336Z,78.00
2023-03-02T01:48:52.097Z,75.50
2023-03-02T01:51:23.905Z,75.30
2023-03-02T01:53:57.494Z,78.70
2023-03-02T01:56:35.149Z,78.60
2023-03-02T01:59:10.462Z,74.90
2023-03-02T02:01:42.125Z,75.90
2023-03-02T02:04:10.973Z,83.20
2023-03-02T02:06:45.421Z,80.10
2023-03-02T02:09:25.721Z,74.40
2023-03-02T02:11:58.033Z,77.30
2023-03-02T02:14:29.321Z,77.70
2023-03-02T02:16:57.424Z,74.60
2023-03-02T02:19:41.237Z,75.50
2023-03-02T02:22:13.007Z,75.40
2023-03-02T02:24:45.267Z,75.90
2023-03-02T02:27:15.626Z,75.20
2023-03-02T02:29:46.945Z,75.90
2023-03-02T02:32:18.398Z,79.00
2023-03-02T02:34:50.667Z,77.80
2023-03-02T02:37:23.685Z,77.40
2023-03-02T02:40:09.423Z,79.10
2023-03-02T02:42:42.902Z,80.60
2023-03-02T02:45:25.866Z,77.80
2023-03-02T02:47:54.737Z,74.70
2023-03-02T02:50:33.620Z,74.80
2023-03-02T02:53:07.969Z,82.20
2023-03-02T02:55:43.368Z,81.70
2023-03-02T02:58:26.935Z,75.90
2023-03-02T03:00:58.285Z,76.20
2023-03-02T03:03:32.112Z,84.10
2023-03-02T03:06:05.873Z,77.30
2023-03-02T03:08:55.725Z,72.20
2023-03-02T03:11:26.650Z,75.70
2023-03-02T03:14:12.153Z,73.70
2023-03-02T03:19:31.772Z,72.90
2023-03-02T03:22:02.571Z,76.60
2023-03-02T03:24:32.896Z,75.60
2023-03-02T03:27:01.379Z,73.50
2023-03-02T03:29:40.583Z,74.90
2023-03-02T03:32:18.900Z,78.80
2023-03-02T03:34:49.993Z,74.70
2023-03-02T03:37:21.241Z,74.10
2023-03-02T03:40:01.574Z,74.90
2023-03-02T03:42:35.244Z,77.30
2023-03-02T03:45:04.852Z,75.10
2023-03-02T03:47:32.760Z,74.40
2023-03-02T03:50:14.531Z,77.80
2023-03-02T03:52:48.372Z,75.10
2023-03-02T03:55:19.884Z,74.20
2023-03-02T03:57:47.766Z,76.20
2023-03-02T04:00:23.113Z,77.90
2023-03-02T04:02:56.565Z,74.90
2023-03-02T04:05:31.576Z,74.70
2023-03-02T04:08:01.984Z,76.50
2023-03-02T04:10:30.678Z,76.00
2023-03-02T04:12:58.651Z,74.90
2023-03-02T04:15:30.927Z,75.20
2023-03-02T04:17:58.965Z,76.00
2023-03-02T04:20:34.535Z,80.80
2023-03-02T04:23:02.403Z,75.70
2023-03-02T04:25:31.610Z,74.60
2023-03-02T04:28:02.653Z,76.40
2023-03-02T04:30:33.062Z,75.60
2023-03-02T04:33:00.922Z,74.10
2023-03-02T04:35:30.935Z,74.80
2023-03-02T04:38:07.437Z,77.40
2023-03-02T04:40:35.468Z,76.80
2023-03-02T04:43:03.400Z,75.40
2023-03-02T04:45:32.780Z,77.40
2023-03-02T04:48:03.829Z,81.30
2023-03-02T04:50:32.202Z,77.00
2023-03-02T04:53:06.176Z,74.20
2023-03-02T04:55:45.133Z,79.20
2023-03-02T04:58:13.225Z,77.70
2023-03-02T05:00:47.356Z,74.50
2023-03-02T05:03:17.418Z,74.90
2023-03-02T05:05:57.794Z,79.70
2023-03-02T05:08:25.849Z,76.70
2023-03-02T05:10:53.798Z,75.30
2023-03-02T05:13:21.662Z,76.30
2023-03-02T05:15:51.646Z,76.70
2023-03-02T05:18:22.409Z,76.50
2023-03-02T05:20:50.385Z,76.70
2023-03-02T05:23:25.167Z,77.60
2023-03-02T05:25:55.445Z,78.60
2023-03-02T05:28:30.135Z,81.40
2023-03-02T05:30:59.452Z,77.80
2023-03-02T05:33:27.764Z,77.50
2023-03-02T05:36:07.358Z,79.10
2023-03-02T05:38:38.322Z,78.50
2023-03-02T05:41:10.126Z,79.30
2023-03-02T05:43:38.069Z,79.90
2023-03-02T05:46:10.470Z,79.40
2023-03-02T05:48:38.566Z,80.10
2023-03-02T05:51:17.332Z,78.20
2023-03-02T05:53:57.214Z,82.10
2023-03-02T05:56:34.517Z,78.90
2023-03-02T05:59:02.580Z,78.50
2023-03-02T06:01:32.302Z,78.80
2023-03-02T06:04:00.483Z,78.80
2023-03-02T06:06:34.617Z,79.10
2023-03-02T06:09:05.764Z,81.60
2023-03-02T06:11:34.133Z,81.00
2023-03-02T06:14:05.005Z,79.30
2023-03-02T06:16:34.651Z,82.50
2023-03-02T06:19:05.808Z,80.20
2023-03-02T06:21:37.038Z,80.10
2023-03-02T06:24:05.122Z,84.70
2023-03-02T06:26:35.749Z,91.80
2023-03-02T06:29:03.647Z,81.00
2023-03-02T06:31:31.966Z,76.90
2023-03-02T06:34:01.641Z,76.10
2023-03-02T06:36:30.000Z,76.20
2023-03-02T06:38:57.937Z,80.00
2023-03-02T06:41:25.827Z,78.80
2023-03-02T06:43:53.704Z,81.30
2023-03-02T06:46:23.740Z,77.30
2023-03-02T06:48:51.654Z,76.50
2023-03-02T06:51:20.877Z,77.10
2023-03-02T06:53:54.881Z,77.10
2023-03-02T06:56:28.811Z,79.70
2023-03-02T06:58:56.685Z,77.50
2023-03-02T07:01:27.572Z,77.70
2023-03-02T07:04:00.546Z,79.60
2023-03-02T07:06:29.837Z,83.00
2023-03-02T07:09:02.920Z,77.80
2023-03-02T07:11:34.311Z,78.70
2023-03-02T07:14:02.858Z,78.70
2023-03-02T07:16:31.281Z,80.70
2023-03-02T07:19:11.166Z,84.20
2023-03-02T07:21:43.194Z,79.20
2023-03-02T07:24:11.090Z,78.20
2023-03-02T07:26:38.921Z,78.80
2023-03-02T07:29:06.789Z,80.10
2023-03-02T07:31:40.620Z,80.80
2023-03-02T07:34:15.428Z,80.40
2023-03-02T07:36:47.001Z,80.30
2023-03-02T07:39:17.326Z,80.70
2023-03-02T07:41:51.059Z,81.30
2023-03-02T07:44:28.022Z,81.40
2023-03-02T07:46:59.225Z,82.20
2023-03-02T07:49:27.114Z,81.50
2023-03-02T07:51:56.370Z,83.10
2023-03-02T07:54:31.541Z,81.40
2023-03-02T07:56:59.771Z,81.70
2023-03-02T07:59:30.414Z,82.40
2023-03-02T08:01:58.897Z,81.10
2023-03-02T08:04:44.612Z,81.90
2023-03-02T08:07:17.138Z,83.30
2023-03-02T08:09:54.246Z,81.60
2023-03-02T08:12:22.140Z,79.20
2023-03-02T08:14:50.107Z,80.00
2023-03-02T08:17:18.018Z,80.30
2023-03-02T08:19:51.624Z,80.20
2023-03-02T08:22:20.876Z,80.30
2023-03-02T08:24:48.968Z,80.70
2023-03-02T08:27:17.289Z,79.80
2023-03-02T08:29:51.318Z,80.20
2023-03-02T08:32:19.200Z,80.30
2023-03-02T08:34:51.153Z,80.20
2023-03-02T08:37:25.374Z,80.70
2023-03-02T08:39:57.913Z,79.50
2023-03-02T08:42:26.588Z,79.80
2023-03-02T08:45:03.835Z,81.00
2023-03-02T08:47:32.446Z,79.70
2023-03-02T08:50:07.027Z,80.10
2023-03-02T08:52:48.874Z,80.80
2023-03-02T08:55:19.022Z,78.70
2023-03-02T08:57:47.631Z,77.40
2023-03-02T09:00:16.907Z,77.20
2023-03-02T09:02:44.689Z,77.50
2023-03-02T09:05:12.513Z,77.70
2023-03-02T09:07:47.832Z,77.50
2023-03-02T09:10:22.932Z,77.30
2023-03-02T09:12:53.916Z,77.70
2023-03-02T09:15:31.379Z,77.10
2023-03-02T09:18:02.165Z,77.10
2023-03-02T09:20:30.062Z,76.00
2023-03-02T09:22:59.351Z,75.70
2023-03-02T09:25:27.260Z,75.40
2023-03-02T09:28:07.132Z,74.20
2023-03-02T09:30:37.294Z,74.90
2023-03-02T09:33:11.073Z,74.30
2023-03-02T09:35:42.825Z,75.50
2023-03-02T09:38:16.061Z,73.60
2023-03-02T09:41:18.341Z,74.00
2023-03-02T09:44:16.807Z,73.10
2023-03-02T09:46:50.724Z,73.70
2023-03-02T09:49:30.351Z,73.70
2023-03-02T09:52:11.610Z,72.80
2023-03-02T09:54:41.822Z,72.60
2023-03-02T09:57:26.269Z,72.80
2023-03-02T10:00:09.492Z,72.40
2023-03-02T10:02:49.044Z,71.60
2023-03-02T10:05:24.817Z,71.50
2023-03-02T10:07:53.051Z,72.10
2023-03-02T10:10:29.055Z,70.90
2023-03-02T10:13:20.065Z,70.80
2023-03-02T10:16:04.125Z,70.10
2023-03-02T10:18:39.324Z,69.80
2023-03-02T10:21:15.389Z,70.20
2023-03-02T10:23:53.078Z,71.10
2023-03-02T10:26:37.486Z,69.90
2023-03-02T10:29:28.543Z,70.90
2023-03-02T10:32:21.721Z,69.10
2023-03-02T10:34:53.897Z,68.10
2023-03-02T10:37:27.942Z,69.20
2023-03-02T10:39:58.327Z,66.50
2023-03-02T10:42:32.130Z,65.80
2023-03-02T10:45:10.224Z,66.60
2023-03-02T10:47:40.267Z,65.10
2023-03-02T10:50:23.824Z,65.80
2023-03-02T10:53:00.184Z,65.60
2023-03-02T10:55:29.791Z,66.60
2023-03-02T10:58:07.848Z,65.30
2023-03-02T11:00:36.789Z,65.30
2023-03-02T11:03:20.599Z,63.30
2023-03-02T11:05:49.116Z,62.90
2023-03-02T11:08:19.365Z,63.80
2023-03-02T11:10:56.740Z,62.70
2023-03-02T11:13:31.126Z,63.00
2023-03-02T11:16:00.656Z,61.10
2023-03-02T11:18:54.505Z,62.60
2023-03-02T11:21:30.972Z,62.90
2023-03-02T11:24:07.908Z,62.20
2023-03-02T11:26:40.117Z,62.00
2023-03-02T11:29:22.821Z,61.80
2023-03-02T11:31:55.281Z,63.30
2023-03-02T11:34:32.151Z,60.90
2023-03-02T11:37:20.794Z,59.70
2023-03-02T11:40:06.082Z,59.20
2023-03-02T11:42:43.890Z,60.40
2023-03-02T11:45:31.171Z,61.20
2023-03-02T11:48:04.192Z,61.50
2023-03-02T11:50:35.627Z,61.20
2023-03-02T11:53:17.345Z,60.40
2023-03-02T11:55:51.625Z,60.70
2023-03-02T11:58:23.501Z,58.60
2023-03-02T12:00:54.495Z,58.90
2023-03-02T12:03:35.978Z,58.00
2023-03-02T12:06:07.187Z,59.60
2023-03-02T12:08:42.170Z,57.70
2023-03-02T12:11:34.058Z,57.40
2023-03-02T12:14:06.923Z,57.50
2023-03-02T12:16:40.806Z,57.90
2023-03-02T12:19:33.269Z,57.00
2023-03-02T12:22:03.284Z,56.80
2023-03-02T12:24:33.048Z,57.20
2023-03-02T12:27:03.807Z,57.90
2023-03-02T12:29:41.009Z,55.30
2023-03-02T12:32:23.724Z,56.10
2023-03-02T12:35:00.818Z,55.70
2023-03-02T12:37:33.892Z,55.70
2023-03-02T12:40:24.976Z,57.30
2023-03-02T12:43:13.478Z,57.00
2023-03-02T12:45:59.692Z,57.20
2023-03-02T12:48:31.878Z,57.00
2023-03-02T12:51:02.595Z,56.60
2023-03-02T12:53:31.188Z,56.80
2023-03-02T12:55:59.233Z,58.10
2023-03-02T12:58:30.026Z,58.40
2023-03-02T13:01:05.771Z,58.80
2023-03-02T13:03:35.029Z,56.30
2023-03-02T13:06:04.295Z,57.50
2023-03-02T13:08:33.705Z,57.90
2023-03-02T13:11:03.174Z,58.60
2023-03-02T13:13:46.048Z,58.10
2023-03-02T13:16:22.925Z,59.30
2023-03-02T13:18:56.899Z,58.90
2023-03-02T13:21:34.644Z,57.70
2023-03-02T13:24:02.610Z,58.90
2023-03-02T13:26:35.776Z,59.70
2023-03-02T13:29:08.578Z,60.60
2023-03-02T13:31:39.432Z,61.60
2023-03-02T13:34:33.060Z,63.60
2023-03-02T13:37:21.049Z,66.90
2023-03-02T13:40:02.246Z,66.90
2023-03-02T13:42:40.315Z,65.30
2023-03-02T13:45:24.374Z,66.20
2023-03-02T13:47:52.640Z,67.00
2023-03-02T13:50:28.081Z,65.00
2023-03-02T13:52:57.807Z,66.40
2023-03-02T13:55:26.495Z,66.30
2023-03-02T13:57:55.668Z,67.90
2023-03-02T14:00:28.388Z,67.60
2023-03-02T14:03:03.361Z,66.40
2023-03-02T14:05:34.953Z,66.30
2023-03-02T14:08:06.966Z,66.20
2023-03-02T14:10:37.582Z,67.00
2023-03-02T14:13:09.387Z,66.80
2023-03-02T14:15:48.051Z,65.80
2023-03-02T14:18:27.637Z,65.20
2023-03-02T14:20:57.421Z,65.70
2023-03-02T14:23:26.314Z,64.20
2023-03-02T14:25:56.278Z,66.10
2023-03-02T14:28:28.817Z,67.70
2023-03-02T14:30:58.262Z,67.70
2023-03-02T14:33:31.728Z,67.70
2023-03-02T14:36:01.136Z,68.60
2023-03-02T14:38:29.227Z,68.40
2023-03-02T14:40:57.862Z,68.40
2023-03-02T14:43:26.206Z,69.20
2023-03-02T14:45:54.779Z,70.80
2023-03-02T14:48:22.862Z,72.20
2023-03-02T14:50:53.526Z,73.00
2023-03-02T14:53:28.809Z,72.50
2023-03-02T14:56:00.109Z,73.80
2023-03-02T14:58:33.718Z,72.70
2023-03-02T15:01:02.113Z,74.60
2023-03-02T15:03:30.050Z,73.60
2023-03-02T15:06:01.527Z,73.90
2023-03-02T15:08:34.364Z,74.10
2023-03-02T15:11:05.352Z,73.80
2023-03-02T15:13:35.980Z,74.80
2023-03-02T15:16:03.884Z,75.30
2023-03-02T15:18:37.731Z,75.50
2023-03-02T15:21:08.570Z,76.70
2023-03-02T15:23:37.830Z,76.20
2023-03-02T15:26:05.875Z,76.90
2023-03-02T15:28:41.108Z,77.70
2023-03-02T15:31:09.958Z,77.80
2023-03-02T15:33:41.408Z,77.80
2023-03-02T15:36:09.598Z,77.90
2023-03-02T15:38:50.557Z,76.90
2023-03-02T15:41:19.568Z,77.40
2023-03-02T15:43:51.042Z,77.60
2023-03-02T15:46:19.030Z,77.50
2023-03-02T15:48:46.950Z,78.40
2023-03-02T15:51:21.156Z,79.50
2023-03-02T15:53:50.364Z,80.20
2023-03-02T15:56:18.464Z,80.50
2023-03-02T15:58:50.675Z,81.20
2023-03-02T16:01:18.583Z,80.60
2023-03-02T16:03:46.842Z,80.70
2023-03-02T16:06:15.650Z,81.40
2023-03-02T16:08:45.973Z,81.30
2023-03-02T16:11:18.677Z,81.40
2023-03-02T16:13:49.154Z,80.80
2023-03-02T16:16:20.350Z,81.00
2023-03-02T16:18:51.862Z,80.80
2023-03-02T16:21:20.167Z,80.40
2023-03-02T16:23:48.183Z,80.20
2023-03-02T16:26:19.403Z,80.70
2023-03-02T16:28:47.701Z,81.40
2023-03-02T16:31:18.465Z,81.90
2023-03-02T16:33:47.455Z,82.10
2023-03-02T16:36:15.992Z,82.80
2023-03-02T16:38:43.870Z,82.20
2023-03-02T16:41:23.586Z,81.60
2023-03-02T16:43:54.259Z,81.80
2023-03-02T16:46:23.116Z,82.10
2023-03-02T16:48:51.404Z,82.30
2023-03-02T16:51:20.687Z,82.30
2023-03-02T16:53:51.267Z,82.40
2023-03-02T16:56:19.140Z,82.60
2023-03-02T16:58:48.462Z,83.30
2023-03-02T17:01:20.270Z,83.20
2023-03-02T17:03:50.621Z,83.20
2023-03-02T17:06:21.419Z,83.20
2023-03-02T17:08:50.591Z,83.00
2023-03-02T17:11:18.587Z,83.20
2023-03-02T17:13:47.921Z,83.50
2023-03-02T17:16:16.736Z,83.70
2023-03-02T17:18:47.739Z,83.70
2023-03-02T17:21:30.665Z,83.40
2023-03-02T17:23:58.576Z,83.40
2023-03-02T17:26:26.374Z,84.20
2023-03-02T17:28:58.086Z,84.20
2023-03-02T17:31:28.193Z,84.80
2023-03-02T17:34:01.305Z,85.70
2023-03-02T17:36:29.222Z,86.30
2023-03-02T17:39:00.183Z,87.10
2023-03-02T17:41:47.946Z,87.80
2023-03-02T17:44:29.476Z,88.40
2023-03-02T17:46:57.360Z,89.30
2023-03-02T17:49:25.271Z,89.00
2023-03-02T17:51:55.572Z,89.40
2023-03-02T17:54:29.582Z,90.10
2023-03-02T17:57:04.672Z,90.10
2023-03-02T17:59:39.041Z,90.20
2023-03-02T18:02:06.991Z,90.30
2023-03-02T18:04:37.642Z,90.30
2023-03-02T18:07:08.592Z,90.20
2023-03-02T18:09:36.465Z,90.10
2023-03-02T18:12:07.524Z,89.80
2023-03-02T18:14:42.333Z,89.80
2023-03-02T18:17:22.654Z,89.50
2023-03-02T18:20:09.858Z,89.70
2023-03-02T18:22:40.642Z,89.30
2023-03-02T18:25:09.147Z,89.20
2023-03-02T18:27:39.803Z,89.30
2023-03-02T18:30:17.846Z,89.60
2023-03-02T18:32:45.718Z,89.70
2023-03-02T18:35:20.109Z,89.50
2023-03-02T18:37:56.443Z,89.00
2023-03-02T18:40:24.379Z,90.00
2023-03-02T18:42:52.222Z,90.40
2023-03-02T18:45:25.373Z,91.00
2023-03-02T18:47:56.361Z,91.20
2023-03-02T18:50:32.144Z,90.80
2023-03-02T18:53:02.817Z,90.70
2023-03-02T18:55:33.684Z,91.00
2023-03-02T18:58:01.528Z,91.10
2023-03-02T19:00:31.074Z,92.50
2023-03-02T19:03:08.078Z,91.10
2023-03-02T19:05:35.972Z,91.00
2023-03-02T19:08:13.347Z,91.60
2023-03-02T19:10:42.416Z,91.60
2023-03-02T19:13:23.606Z,91.90
2023-03-02T19:15:54.874Z,92.10
2023-03-02T19:18:26.770Z,92.40
2023-03-02T19:20:55.601Z,92.60
2023-03-02T19:23:23.508Z,92.60
2023-03-02T19:25:51.817Z,93.10
2023-03-02T19:28:22.402Z,93.00
2023-03-02T19:30:57.192Z,93.20
2023-03-02T19:33:40.977Z,93.40
2023-03-02T19:36:27.360Z,93.50
2023-03-02T19:39:01.040Z,93.90
2023-03-02T19:41:32.133Z,94.30
2023-03-02T19:44:02.974Z,94.30
2023-03-02T19:46:38.237Z,94.50
2023-03-02T19:49:11.912Z,94.70
2023-03-02T19:51:40.072Z,94.60
2023-03-02T19:54:07.955Z,94.80
2023-03-02T19:56:40.202Z,94.40
2023-03-02T19:59:08.301Z,94.40
2023-03-02T20:01:36.273Z,95.10
2023-03-02T20:04:08.342Z,93.80
2023-03-02T20:06:37.073Z,93.00
2023-03-02T20:09:09.558Z,93.00
2023-03-02T20:11:38.229Z,93.20
2023-03-02T20:14:06.135Z,93.50
2023-03-02T20:16:36.408Z,93.40
2023-03-02T20:19:08.666Z,93.40
2023-03-02T20:21:37.865Z,93.50
2023-03-02T20:24:08.839Z,93.60
2023-03-02T20:26:36.697Z,93.50
2023-03-02T20:29:05.581Z,93.80
2023-03-02T20:31:39.481Z,93.80
2023-03-02T20:34:20.434Z,94.20
2023-03-02T20:36:48.571Z,94.50
2023-03-02T20:39:23.340Z,94.60
2023-03-02T20:41:58.261Z,94.70
2023-03-02T20:44:30.908Z,95.20
2023-03-02T20:47:16.160Z,94.80
2023-03-02T20:49:48.534Z,94.60
2023-03-02T20:52:19.189Z,95.00
2023-03-02T20:54:47.002Z,95.40
2023-03-02T20:57:20.464Z,95.30
2023-03-02T20:59:49.572Z,95.30
2023-03-02T21:02:26.384Z,95.40
2023-03-02T21:05:10.600Z,95.60
2023-03-02T21:07:40.768Z,95.90
2023-03-02T21:10:14.221Z,96.70
2023-03-02T21:12:43.064Z,94.90
2023-03-02T21:15:16.696Z,94.30
2023-03-02T21:17:47.619Z,94.70
2023-03-02T21:20:18.373Z,95.20
2023-03-02T21:22:47.106Z,95.20
2023-03-02T21:25:24.306Z,95.20
2023-03-02T21:27:58.310Z,95.70
2023-03-02T21:30:29.265Z,95.50
2023-03-02T21:32:57.491Z,96.00
2023-03-02T21:35:46.253Z,96.20
2023-03-02T21:38:31.423Z,96.90
2023-03-02T21:40:59.281Z,97.10
2023-03-02T21:43:29.884Z,98.10
2023-03-02T21:45:58.448Z,98.50
2023-03-02T21:48:32.493Z,99.30
2023-03-02T21:51:04.147Z,98.70
2023-03-02T21:53:37.790Z,99.30
2023-03-02T21:56:08.924Z,99.20
2023-03-02T21:58:44.567Z,99.30
2023-03-02T22:01:14.894Z,99.40
2023-03-02T22:03:43.309Z,99.90
2023-03-02T22:06:17.355Z,99.90
2023-03-02T22:08:48.319Z,99.90
2023-03-02T22:11:22.596Z,99.90
2023-03-02T22:13:59.360Z,99.90
2023-03-02T22:16:35.784Z,99.90
2023-03-02T22:19:27.738Z,99.90
2023-03-02T22:21:59.816Z,99.50
2023-03-02T22:24:31.707Z,99.10
2023-03-02T22:27:02.542Z,99.60
2023-03-02T22:29:33.470Z,99.70
2023-03-02T22:32:16.313Z,99.10
2023-03-02T22:34:48.452Z,98.70
2023-03-02T22:37:25.562Z,98.90
2023-03-02T22:39:56.444Z,99.20
2023-03-02T22:42:32.990Z,99.10
2023-03-02T22:45:14.667Z,99.50
2023-03-02T22:47:42.687Z,99.90
2023-03-02T22:50:28.516Z,99.90
2023-03-02T22:53:22.972Z,99.90
2023-03-02T22:55:56.939Z,99.90
2023-03-02T22:58:45.748Z,99.90
2023-03-02T23:01:24.630Z,99.90
2023-03-02T23:04:20.236Z,99.90
2023-03-02T23:06:50.515Z,99.90
2023-03-02T23:09:32.071Z,99.90
2023-03-02T23:12:06.720Z,99.90
2023-03-02T23:14:49.196Z,99.90
2023-03-02T23:17:21.046Z,99.90
2023-03-02T23:19:49.308Z,99.90
2023-03-02T23:22:19.341Z,99.90
2023-03-02T23:24:48.750Z,99.90
2023-03-02T23:27:28.734Z,99.90
2023-03-02T23:30:02.796Z,99.90
2023-03-02T23:32:36.113Z,99.90
2023-03-02T23:35:10.620Z,99.90
2023-03-02T23:37:43.497Z,99.90
2023-03-02T23:40:13.809Z,99.90
2023-03-02T23:42:44.117Z,99.90
2023-03-02T23:45:12.250Z,99.90
2023-03-02T23:47:42.456Z,99.90
2023-03-02T23:50:14.502Z,99.90
2023-03-02T23:52:45.166Z,99.90
2023-03-02T23:55:14.609Z,99.90
2023-03-02T23:57:47.620Z,99.90
